createdAt,value
2018-07-31T00:01:38.405Z,9.23
2018-07-31T00:04:08.520Z,9.70
2018-07-31T00:06:38.325Z,10.00
2018-07-31T00:09:09.192Z,9.40
2018-07-31T00:11:38.889Z,10.00
2018-07-31T00:14:08.728Z,10.27
2018-07-31T00:16:38.429Z,9.63
2018-07-31T00:19:08.095Z,10.80
2018-07-31T00:21:37.947Z,9.83
2018-07-31T00:24:07.885Z,9.80
2018-07-31T00:26:37.657Z,9.10
2018-07-31T00:29:07.410Z,9.13
2018-07-31T00:31:37.054Z,9.03
2018-07-31T00:34:06.846Z,10.23
2018-07-31T00:36:36.632Z,9.37
2018-07-31T00:39:08.392Z,9.10
2018-07-31T00:41:37.473Z,8.80
2018-07-31T00:44:07.239Z,9.30
2018-07-31T00:46:37.227Z,9.00
2018-07-31T00:49:07.152Z,9.30
2018-07-31T00:51:36.885Z,9.87
2018-07-31T00:54:06.830Z,10.30
2018-07-31T00:56:36.461Z,9.80
2018-07-31T00:59:06.218Z,9.77
2018-07-31T01:01:35.957Z,10.17
2018-07-31T01:04:05.753Z,9.77
2018-07-31T01:06:40.460Z,10.40
2018-07-31T01:09:11.077Z,9.70
2018-07-31T01:11:41.236Z,9.50
2018-07-31T01:14:11.344Z,10.40
2018-07-31T01:16:42.017Z,9.50
2018-07-31T01:19:12.347Z,10.37
2018-07-31T01:21:41.698Z,10.10
2018-07-31T01:24:11.696Z,10.50
2018-07-31T01:26:41.471Z,10.50
2018-07-31T01:29:11.240Z,9.40
2018-07-31T01:31:40.674Z,10.30
2018-07-31T01:34:10.064Z,9.80
2018-07-31T01:36:39.455Z,9.53
2018-07-31T01:39:10.814Z,10.00
2018-07-31T01:41:40.583Z,9.83
2018-07-31T01:44:10.040Z,10.00
2018-07-31T01:46:39.823Z,10.13
2018-07-31T01:49:09.536Z,11.40
2018-07-31T01:51:39.373Z,10.73
2018-07-31T01:54:08.892Z,10.37
2018-07-31T01:56:38.274Z,10.13
2018-07-31T01:59:07.661Z,10.77
2018-07-31T02:01:37.107Z,11.00
2018-07-31T02:04:06.775Z,10.33
2018-07-31T02:06:36.189Z,10.30
2018-07-31T02:09:07.948Z,9.77
2018-07-31T02:11:42.798Z,10.23
2018-07-31T02:14:14.410Z,9.87
2018-07-31T02:16:47.242Z,11.50
2018-07-31T02:19:17.771Z,11.40
2018-07-31T02:21:47.161Z,10.03
2018-07-31T02:24:16.851Z,9.73
2018-07-31T02:26:46.495Z,10.40
2018-07-31T02:29:20.647Z,10.83
2018-07-31T02:31:50.041Z,10.30
2018-07-31T02:34:19.733Z,9.60
2018-07-31T02:36:49.137Z,9.77
2018-07-31T02:39:18.992Z,9.67
2018-07-31T02:41:48.757Z,10.40
2018-07-31T02:44:18.394Z,9.77
2018-07-31T02:46:48.295Z,9.90
2018-07-31T02:49:18.157Z,9.93
2018-07-31T02:51:47.579Z,10.60
2018-07-31T02:54:17.373Z,12.27
2018-07-31T02:56:46.780Z,10.13
2018-07-31T02:59:16.166Z,11.27
2018-07-31T03:01:45.862Z,9.30
2018-07-31T03:04:15.240Z,10.73
2018-07-31T03:06:44.666Z,10.27
2018-07-31T03:09:14.504Z,10.50
2018-07-31T03:11:43.904Z,10.80
2018-07-31T03:14:13.289Z,10.87
2018-07-31T03:16:42.687Z,11.20
2018-07-31T03:19:12.550Z,10.93
2018-07-31T03:21:42.223Z,10.50
2018-07-31T03:24:11.635Z,11.37
2018-07-31T03:26:41.052Z,10.97
2018-07-31T03:29:10.830Z,11.50
2018-07-31T03:31:40.627Z,10.50
2018-07-31T03:34:10.483Z,11.20
2018-07-31T03:36:40.042Z,10.20
2018-07-31T03:39:10.478Z,9.93
2018-07-31T03:41:40.185Z,11.00
2018-07-31T03:44:09.931Z,11.00
2018-07-31T03:46:39.527Z,10.47
2018-07-31T03:49:09.323Z,11.10
2018-07-31T03:51:39.068Z,11.67
2018-07-31T03:54:08.812Z,10.67
2018-07-31T03:56:39.496Z,11.60
2018-07-31T03:59:08.920Z,11.77
2018-07-31T04:01:38.303Z,11.20
2018-07-31T04:04:08.158Z,11.23
2018-07-31T04:06:37.983Z,10.67
2018-07-31T04:09:10.695Z,11.50
2018-07-31T04:11:40.178Z,11.47
2018-07-31T04:14:11.057Z,10.37
2018-07-31T04:16:40.943Z,10.20
2018-07-31T04:19:10.357Z,10.90
2018-07-31T04:21:40.168Z,10.50
2018-07-31T04:24:09.990Z,10.37
2018-07-31T04:26:43.373Z,11.17
2018-07-31T04:29:13.024Z,11.73
2018-07-31T04:31:42.799Z,11.20
2018-07-31T04:34:12.564Z,11.80
2018-07-31T04:36:43.021Z,10.60
2018-07-31T04:39:14.364Z,11.20
2018-07-31T04:41:44.808Z,11.47
2018-07-31T04:44:14.723Z,11.00
2018-07-31T04:46:44.589Z,11.13
2018-07-31T04:49:14.951Z,10.30
2018-07-31T04:51:44.672Z,11.37
2018-07-31T04:54:14.479Z,10.43
2018-07-31T04:56:44.249Z,9.33
2018-07-31T04:59:14.010Z,11.00
2018-07-31T05:01:44.508Z,10.47
2018-07-31T05:04:14.204Z,11.10
2018-07-31T05:06:44.149Z,10.90
2018-07-31T05:09:13.981Z,9.73
2018-07-31T05:11:43.892Z,10.27
2018-07-31T05:14:13.666Z,10.33
2018-07-31T05:16:43.345Z,10.60
2018-07-31T05:19:12.764Z,10.43
2018-07-31T05:21:42.468Z,10.27
2018-07-31T05:24:12.196Z,11.30
2018-07-31T05:26:41.576Z,10.60
2018-07-31T05:29:10.771Z,10.23
2018-07-31T05:31:40.593Z,9.50
2018-07-31T05:34:09.864Z,10.30
2018-07-31T05:36:39.540Z,10.90
2018-07-31T05:39:11.128Z,10.83
2018-07-31T05:41:40.915Z,11.50
2018-07-31T05:44:10.676Z,10.40
2018-07-31T05:46:40.441Z,9.83
2018-07-31T05:49:09.856Z,10.07
2018-07-31T05:51:39.245Z,9.80
2018-07-31T05:54:08.653Z,10.10
2018-07-31T05:56:38.050Z,9.90
2018-07-31T05:59:07.512Z,10.30
2018-07-31T06:01:36.952Z,11.33
2018-07-31T06:04:06.473Z,9.37
2018-07-31T06:06:35.893Z,10.90
2018-07-31T06:09:07.306Z,9.13
2018-07-31T06:11:36.908Z,10.00
2018-07-31T06:14:07.256Z,11.00
2018-07-31T06:16:37.355Z,10.00
2018-07-31T06:19:07.223Z,9.90
2018-07-31T06:21:37.264Z,11.40
2018-07-31T06:24:07.107Z,11.30
2018-07-31T06:26:36.808Z,9.90
2018-07-31T06:29:06.522Z,11.30
2018-07-31T06:31:36.428Z,10.60
2018-07-31T06:34:06.325Z,10.87
2018-07-31T06:36:36.176Z,10.97
2018-07-31T06:39:08.240Z,11.20
2018-07-31T06:41:38.158Z,11.67
2018-07-31T06:44:08.340Z,11.23
2018-07-31T06:46:38.176Z,10.30
2018-07-31T06:49:08.076Z,11.33
2018-07-31T06:51:37.756Z,11.00
2018-07-31T06:54:07.517Z,10.30
2018-07-31T06:56:37.433Z,12.63
2018-07-31T06:59:07.240Z,13.20
2018-07-31T07:01:37.107Z,10.80
2018-07-31T07:04:06.879Z,12.13
2018-07-31T07:06:36.556Z,11.57
2018-07-31T07:09:08.837Z,10.00
2018-07-31T07:11:38.692Z,10.80
2018-07-31T07:14:08.513Z,9.77
2018-07-31T07:16:38.459Z,8.80
2018-07-31T07:19:08.455Z,8.40
2018-07-31T07:21:38.313Z,8.90
2018-07-31T07:24:08.190Z,8.37
2018-07-31T07:26:37.953Z,7.97
2018-07-31T07:29:07.908Z,8.50
2018-07-31T07:31:37.143Z,8.48
2018-07-31T07:34:07.081Z,8.00
2018-07-31T07:36:36.944Z,8.00
2018-07-31T07:39:07.476Z,8.10
2018-07-31T07:41:37.215Z,7.30
2018-07-31T07:44:07.156Z,8.30
2018-07-31T07:46:36.848Z,7.97
2018-07-31T07:49:06.728Z,7.72
2018-07-31T07:51:36.545Z,7.78
2018-07-31T07:54:06.333Z,7.55
2018-07-31T07:56:36.094Z,7.85
2018-07-31T07:59:05.949Z,7.87
2018-07-31T08:01:35.731Z,8.28
2018-07-31T08:04:05.559Z,7.28
2018-07-31T08:06:35.296Z,8.20
2018-07-31T08:09:05.312Z,7.60
2018-07-31T08:11:35.073Z,8.23
2018-07-31T08:14:05.028Z,7.60
2018-07-31T08:16:34.151Z,6.97
2018-07-31T08:19:03.892Z,7.30
2018-07-31T08:21:33.790Z,7.35
2018-07-31T08:24:03.484Z,7.92
2018-07-31T08:26:33.242Z,8.13
2018-07-31T08:29:02.948Z,7.80
2018-07-31T08:31:32.643Z,7.78
2018-07-31T08:34:02.331Z,7.08
2018-07-31T08:36:32.108Z,7.97
2018-07-31T08:39:01.867Z,7.65
2018-07-31T08:41:31.560Z,6.67
2018-07-31T08:44:01.210Z,7.12
2018-07-31T08:46:30.961Z,7.35
2018-07-31T08:49:00.726Z,7.62
2018-07-31T08:51:30.799Z,7.83
2018-07-31T08:54:00.696Z,7.50
2018-07-31T08:56:30.421Z,7.75
2018-07-31T08:59:00.171Z,8.40
2018-07-31T09:01:30.098Z,8.93
2018-07-31T09:03:59.887Z,7.55
2018-07-31T09:06:29.663Z,7.67
2018-07-31T09:08:59.563Z,6.83
2018-07-31T09:11:29.348Z,7.10
2018-07-31T09:13:58.498Z,6.83
2018-07-31T09:16:28.245Z,7.00
2018-07-31T09:18:57.936Z,6.78
2018-07-31T09:21:27.639Z,7.20
2018-07-31T09:23:57.272Z,6.22
2018-07-31T09:26:27.104Z,6.70
2018-07-31T09:29:00.831Z,7.42
2018-07-31T09:31:30.724Z,6.75
2018-07-31T09:34:00.472Z,6.90
2018-07-31T09:36:30.184Z,6.08
2018-07-31T09:38:59.903Z,7.08
2018-07-31T09:41:29.703Z,6.42
2018-07-31T09:43:59.225Z,6.83
2018-07-31T09:46:28.924Z,16.82
2018-07-31T09:48:58.790Z,13.40
2018-07-31T09:51:28.580Z,33.10
2018-07-31T09:53:58.556Z,9.53
2018-07-31T09:56:28.238Z,9.28
2018-07-31T09:58:58.188Z,7.75
2018-07-31T10:01:27.939Z,6.20
2018-07-31T10:03:57.765Z,5.95
2018-07-31T10:06:27.570Z,7.00
2018-07-31T10:08:57.460Z,6.87
2018-07-31T10:11:27.187Z,7.60
2018-07-31T10:13:56.962Z,7.03
2018-07-31T10:16:26.617Z,6.85
2018-07-31T10:18:56.316Z,6.90
2018-07-31T10:21:26.228Z,6.97
2018-07-31T10:23:56.056Z,6.78
2018-07-31T10:26:25.814Z,6.67
2018-07-31T10:28:54.832Z,7.78
2018-07-31T10:31:24.672Z,6.95
2018-07-31T10:33:54.448Z,7.60
2018-07-31T10:36:24.201Z,8.30
2018-07-31T10:38:53.976Z,6.73
2018-07-31T10:41:23.768Z,7.10
2018-07-31T10:43:53.558Z,6.97
2018-07-31T10:46:23.393Z,7.43
2018-07-31T10:48:53.163Z,7.90
2018-07-31T10:51:22.839Z,8.03
2018-07-31T10:53:52.513Z,8.23
2018-07-31T10:56:22.381Z,7.90
2018-07-31T10:58:52.370Z,7.47
2018-07-31T11:01:22.446Z,7.37
2018-07-31T11:03:52.242Z,8.30
2018-07-31T11:06:22.223Z,6.70
2018-07-31T11:08:51.856Z,7.80
2018-07-31T11:11:21.557Z,8.00
2018-07-31T11:13:51.279Z,7.40
2018-07-31T11:16:21.040Z,7.47
2018-07-31T11:18:50.594Z,8.20
2018-07-31T11:21:20.466Z,7.97
2018-07-31T11:23:50.277Z,7.80
2018-07-31T11:26:19.959Z,7.27
2018-07-31T11:28:49.784Z,7.47
2018-07-31T11:31:19.441Z,7.30
2018-07-31T11:33:49.140Z,7.40
2018-07-31T11:36:18.919Z,7.50
2018-07-31T11:38:48.686Z,6.47
2018-07-31T11:41:18.556Z,7.47
2018-07-31T11:43:48.472Z,6.63
2018-07-31T11:46:18.301Z,7.20
2018-07-31T11:48:47.931Z,7.63
2018-07-31T11:51:17.768Z,7.57
2018-07-31T11:53:47.647Z,7.13
2018-07-31T11:56:17.449Z,7.57
2018-07-31T11:58:47.125Z,7.37
2018-07-31T12:01:16.771Z,6.70
2018-07-31T12:03:46.446Z,6.20
2018-07-31T12:06:16.306Z,6.80
2018-07-31T12:08:46.171Z,6.33
2018-07-31T12:11:16.029Z,6.63
2018-07-31T12:13:45.898Z,7.50
2018-07-31T12:16:15.786Z,7.33
2018-07-31T12:18:45.520Z,6.20
2018-07-31T12:21:15.284Z,6.47
2018-07-31T12:23:45.135Z,7.30
2018-07-31T12:26:14.906Z,6.47
2018-07-31T12:28:44.707Z,7.00
2018-07-31T12:31:14.422Z,6.17
2018-07-31T12:33:44.228Z,7.50
2018-07-31T12:36:14.123Z,6.67
2018-07-31T12:38:43.871Z,6.53
2018-07-31T12:41:13.674Z,7.00
2018-07-31T12:43:43.477Z,6.70
2018-07-31T12:46:13.276Z,7.03
2018-07-31T12:48:43.080Z,7.80
2018-07-31T12:51:12.317Z,7.00
2018-07-31T12:53:42.178Z,6.80
2018-07-31T12:56:11.934Z,6.90
2018-07-31T12:58:41.706Z,8.93
2018-07-31T13:01:11.561Z,7.43
2018-07-31T13:03:41.348Z,6.80
2018-07-31T13:06:11.092Z,7.00
2018-07-31T13:08:43.359Z,7.00
2018-07-31T13:11:14.570Z,6.80
2018-07-31T13:13:44.193Z,7.30
2018-07-31T13:16:14.070Z,7.40
2018-07-31T13:18:43.320Z,7.20
2018-07-31T13:21:13.144Z,6.90
2018-07-31T13:23:43.061Z,6.70
2018-07-31T13:26:12.908Z,7.23
2018-07-31T13:28:42.125Z,8.57
2018-07-31T13:31:11.877Z,7.97
2018-07-31T13:33:41.656Z,7.53
2018-07-31T13:36:11.398Z,7.00
2018-07-31T13:38:41.080Z,7.03
2018-07-31T13:41:10.865Z,7.83
2018-07-31T13:43:40.691Z,7.70
2018-07-31T13:46:10.482Z,7.63
2018-07-31T13:48:39.591Z,7.87
2018-07-31T13:51:09.257Z,7.80
2018-07-31T13:53:39.088Z,7.80
2018-07-31T13:56:08.681Z,7.90
2018-07-31T13:58:38.477Z,8.37
2018-07-31T14:01:08.479Z,6.80
2018-07-31T14:03:38.201Z,6.67
2018-07-31T14:06:08.136Z,6.10
2018-07-31T14:08:37.933Z,6.83
2018-07-31T14:11:07.621Z,7.10
2018-07-31T14:13:37.406Z,7.43
2018-07-31T14:16:07.267Z,7.73
2018-07-31T14:18:37.281Z,8.57
2018-07-31T14:21:07.073Z,7.10
2018-07-31T14:23:36.954Z,8.03
2018-07-31T14:26:06.208Z,7.10
2018-07-31T14:28:36.085Z,7.20
2018-07-31T14:31:05.941Z,7.30
2018-07-31T14:33:35.809Z,6.80
2018-07-31T14:36:06.479Z,7.17
2018-07-31T14:38:36.294Z,6.77
2018-07-31T14:41:06.211Z,7.80
2018-07-31T14:43:36.035Z,7.73
2018-07-31T14:46:05.720Z,7.37
2018-07-31T14:48:35.500Z,7.53
2018-07-31T14:51:05.246Z,7.60
2018-07-31T14:53:35.009Z,7.87
2018-07-31T14:56:04.071Z,7.70
2018-07-31T14:58:33.861Z,7.27
2018-07-31T15:01:03.652Z,7.60
2018-07-31T15:03:33.393Z,7.67
2018-07-31T15:06:03.181Z,7.40
2018-07-31T15:08:35.949Z,8.10
2018-07-31T15:11:05.720Z,7.50
2018-07-31T15:13:35.664Z,7.90
2018-07-31T15:16:04.665Z,7.40
2018-07-31T15:18:34.602Z,8.23
2018-07-31T15:21:04.329Z,7.50
2018-07-31T15:23:40.012Z,7.20
2018-07-31T15:26:10.164Z,8.40
2018-07-31T15:28:39.853Z,7.40
2018-07-31T15:31:09.594Z,8.37
2018-07-31T15:33:39.285Z,7.07
2018-07-31T15:36:08.808Z,7.50
2018-07-31T15:38:38.536Z,7.23
2018-07-31T15:41:08.349Z,7.63
2018-07-31T15:43:38.056Z,7.20
2018-07-31T15:46:07.839Z,7.63
2018-07-31T15:48:36.888Z,7.80
2018-07-31T15:51:06.704Z,6.90
2018-07-31T15:53:36.438Z,7.70
2018-07-31T15:56:06.207Z,6.77
2018-07-31T15:58:35.894Z,7.40
2018-07-31T16:01:05.593Z,7.40
2018-07-31T16:03:35.121Z,6.77
2018-07-31T16:06:05.574Z,7.70
2018-07-31T16:08:35.483Z,8.20
2018-07-31T16:11:04.860Z,7.03
2018-07-31T16:13:35.179Z,8.20
2018-07-31T16:16:05.095Z,8.13
2018-07-31T16:18:34.854Z,7.47
2018-07-31T16:21:05.276Z,8.13
2018-07-31T16:23:34.854Z,7.00
2018-07-31T16:26:04.677Z,6.97
2018-07-31T16:28:34.191Z,7.77
2018-07-31T16:31:03.862Z,7.13
2018-07-31T16:33:33.976Z,7.70
2018-07-31T16:36:03.806Z,8.13
2018-07-31T16:38:33.694Z,7.73
2018-07-31T16:41:03.132Z,7.80
2018-07-31T16:43:32.529Z,7.20
2018-07-31T16:46:01.957Z,7.63
2018-07-31T16:48:31.358Z,7.43
2018-07-31T16:51:00.734Z,7.13
2018-07-31T16:53:30.197Z,7.80
2018-07-31T16:55:59.592Z,7.03
2018-07-31T16:58:29.007Z,7.50
2018-07-31T17:00:58.359Z,7.97
2018-07-31T17:03:27.767Z,7.47
2018-07-31T17:05:57.157Z,7.27
2018-07-31T17:08:26.598Z,7.27
2018-07-31T17:10:55.968Z,6.80
2018-07-31T17:13:25.366Z,7.90
2018-07-31T17:15:54.749Z,7.23
2018-07-31T17:18:24.122Z,7.30
2018-07-31T17:20:53.996Z,6.90
2018-07-31T17:23:24.472Z,8.30
2018-07-31T17:25:53.838Z,7.20
2018-07-31T17:28:23.697Z,7.43
2018-07-31T17:30:53.625Z,7.30
2018-07-31T17:33:23.172Z,6.90
2018-07-31T17:35:53.277Z,7.73
2018-07-31T17:38:22.659Z,7.50
2018-07-31T17:40:52.585Z,7.67
2018-07-31T17:43:22.078Z,7.80
2018-07-31T17:45:52.033Z,8.00
2018-07-31T17:48:21.969Z,8.13
2018-07-31T17:50:52.004Z,8.23
2018-07-31T17:53:21.431Z,8.17
2018-07-31T17:55:51.403Z,7.00
2018-07-31T17:58:20.494Z,7.47
2018-07-31T18:00:50.181Z,7.40
2018-07-31T18:03:20.668Z,7.80
2018-07-31T18:05:50.049Z,7.60
2018-07-31T18:08:20.106Z,7.50
2018-07-31T18:10:49.490Z,7.97
2018-07-31T18:13:18.852Z,6.83
2018-07-31T18:15:48.970Z,7.87
2018-07-31T18:18:18.978Z,7.80
2018-07-31T18:20:49.183Z,8.73
2018-07-31T18:23:18.649Z,7.63
2018-07-31T18:25:48.407Z,7.90
2018-07-31T18:28:17.776Z,7.30
2018-07-31T18:30:47.223Z,7.47
2018-07-31T18:33:17.336Z,7.70
2018-07-31T18:35:46.718Z,7.00
2018-07-31T18:38:16.077Z,8.20
2018-07-31T18:40:45.926Z,7.13
2018-07-31T18:43:15.338Z,6.97
2018-07-31T18:45:44.768Z,7.57
2018-07-31T18:48:14.124Z,7.63
2018-07-31T18:50:43.561Z,7.77
2018-07-31T18:53:13.512Z,7.13
2018-07-31T18:55:42.885Z,8.00
2018-07-31T18:58:12.270Z,8.37
2018-07-31T19:00:42.240Z,7.67
2018-07-31T19:03:11.642Z,7.10
2018-07-31T19:05:42.088Z,8.07
2018-07-31T19:08:12.034Z,7.93
2018-07-31T19:10:41.467Z,7.60
2018-07-31T19:13:11.636Z,7.60
2018-07-31T19:15:41.033Z,7.57
2018-07-31T19:18:11.010Z,8.60
2018-07-31T19:20:41.085Z,8.70
2018-07-31T19:23:10.476Z,7.53
2018-07-31T19:25:40.404Z,9.23
2018-07-31T19:28:10.312Z,8.23
2018-07-31T19:30:40.755Z,9.87
2018-07-31T19:33:11.284Z,9.00
2018-07-31T19:35:41.117Z,9.90
2018-07-31T19:38:10.531Z,8.70
2018-07-31T19:40:39.957Z,8.30
2018-07-31T19:43:09.356Z,7.90
2018-07-31T19:45:39.097Z,8.00
2018-07-31T19:48:08.551Z,8.00
2018-07-31T19:50:37.632Z,8.00
2018-07-31T19:53:06.743Z,8.47
2018-07-31T19:55:36.139Z,8.23
2018-07-31T19:58:05.556Z,9.37
2018-07-31T20:00:34.940Z,8.97
2018-07-31T20:03:04.721Z,7.50
2018-07-31T20:05:34.580Z,8.20
2018-07-31T20:08:04.022Z,8.80
2018-07-31T20:10:33.370Z,8.00
2018-07-31T20:13:02.843Z,8.60
2018-07-31T20:15:32.285Z,8.13
2018-07-31T20:18:02.119Z,8.97
2018-07-31T20:20:31.516Z,8.20
2018-07-31T20:23:01.091Z,8.10
2018-07-31T20:25:30.492Z,8.20
2018-07-31T20:28:00.296Z,9.30
2018-07-31T20:30:29.909Z,9.10
2018-07-31T20:33:01.373Z,8.57
2018-07-31T20:35:30.999Z,8.10
2018-07-31T20:38:01.323Z,9.20
2018-07-31T20:40:30.758Z,8.70
2018-07-31T20:43:01.571Z,8.97
2018-07-31T20:45:31.362Z,9.40
2018-07-31T20:48:00.784Z,9.00
2018-07-31T20:50:30.164Z,8.87
2018-07-31T20:52:59.853Z,8.17
2018-07-31T20:55:29.636Z,8.60
2018-07-31T20:57:59.242Z,8.60
2018-07-31T21:00:28.957Z,8.10
2018-07-31T21:02:59.718Z,7.57
2018-07-31T21:05:30.106Z,7.80
2018-07-31T21:07:59.828Z,7.90
2018-07-31T21:10:29.608Z,8.23
2018-07-31T21:12:58.853Z,8.00
2018-07-31T21:15:28.664Z,9.20
2018-07-31T21:17:58.375Z,8.20
2018-07-31T21:20:27.981Z,7.87
2018-07-31T21:22:57.848Z,8.10
2018-07-31T21:25:27.563Z,7.57
2018-07-31T21:27:58.109Z,8.57
2018-07-31T21:30:27.724Z,9.17
2018-07-31T21:32:57.100Z,8.07
2018-07-31T21:35:26.849Z,8.80
2018-07-31T21:37:56.674Z,7.53
2018-07-31T21:40:26.199Z,8.20
2018-07-31T21:42:55.982Z,8.20
2018-07-31T21:45:25.804Z,9.33
2018-07-31T21:47:55.579Z,8.37
2018-07-31T21:50:25.217Z,8.47
2018-07-31T21:52:55.076Z,9.10
2018-07-31T21:55:24.648Z,8.57
2018-07-31T21:57:54.244Z,9.63
2018-07-31T22:00:24.103Z,8.63
2018-07-31T22:02:53.644Z,8.47
2018-07-31T22:05:23.245Z,9.47
2018-07-31T22:07:53.038Z,8.80
2018-07-31T22:10:22.697Z,8.83
2018-07-31T22:12:52.344Z,8.70
2018-07-31T22:15:21.992Z,8.50
2018-07-31T22:17:51.627Z,10.23
2018-07-31T22:20:21.436Z,9.70
2018-07-31T22:22:51.241Z,9.60
2018-07-31T22:25:20.921Z,9.50
2018-07-31T22:27:50.608Z,9.80
2018-07-31T22:30:19.550Z,10.13
2018-07-31T22:32:49.265Z,11.20
2018-07-31T22:35:19.060Z,9.63
2018-07-31T22:37:48.728Z,10.03
2018-07-31T22:40:18.380Z,9.00
2018-07-31T22:42:48.168Z,9.57
2018-07-31T22:45:17.724Z,9.33
2018-07-31T22:47:47.365Z,9.23
2018-07-31T22:50:17.205Z,9.73
2018-07-31T22:52:47.121Z,9.80
2018-07-31T22:55:17.018Z,9.60
2018-07-31T22:57:46.953Z,10.10
2018-07-31T23:00:16.731Z,9.60
2018-07-31T23:02:46.120Z,9.87
2018-07-31T23:05:15.831Z,9.40
2018-07-31T23:07:45.610Z,9.10
2018-07-31T23:10:15.442Z,9.60
2018-07-31T23:12:45.288Z,11.07
2018-07-31T23:15:15.196Z,12.40
2018-07-31T23:17:44.907Z,11.00
2018-07-31T23:20:14.320Z,10.90
2018-07-31T23:22:50.769Z,10.97
2018-07-31T23:25:20.624Z,11.23
2018-07-31T23:27:50.406Z,12.13
2018-07-31T23:30:20.167Z,12.90
2018-07-31T23:32:49.909Z,13.47
2018-07-31T23:35:19.702Z,14.93
2018-07-31T23:37:49.471Z,12.23
2018-07-31T23:40:19.121Z,12.40
2018-07-31T23:42:48.705Z,12.00
2018-07-31T23:45:18.336Z,11.97
2018-07-31T23:47:48.141Z,11.40
2018-07-31T23:50:17.746Z,11.50
2018-07-31T23:52:47.335Z,11.07
2018-07-31T23:55:17.168Z,11.40
2018-07-31T23:57:46.761Z,11.20
